createdAt,value
2019-04-14T00:02:16.378Z,32.40
2019-04-14T00:05:10.743Z,32.40
2019-04-14T00:08:04.531Z,32.40
2019-04-14T00:10:57.459Z,32.40
2019-04-14T00:13:50.213Z,32.40
2019-04-14T00:16:42.689Z,32.30
2019-04-14T00:19:35.275Z,32.30
2019-04-14T00:22:29.229Z,32.30
2019-04-14T00:25:23.726Z,32.30
2019-04-14T00:28:16.668Z,32.30
2019-04-14T00:31:09.488Z,32.40
2019-04-14T00:34:07.134Z,32.40
2019-04-14T00:37:09.873Z,32.30
2019-04-14T00:40:10.415Z,32.30
2019-04-14T00:43:13.510Z,32.30
2019-04-14T00:46:16.609Z,32.30
2019-04-14T00:49:09.399Z,32.40
2019-04-14T00:52:03.562Z,32.40
2019-04-14T00:54:56.470Z,32.30
2019-04-14T00:57:50.813Z,32.40
2019-04-14T01:00:43.729Z,32.40
2019-04-14T01:03:37.327Z,32.40
2019-04-14T01:06:31.609Z,32.40
2019-04-14T01:09:24.341Z,32.40
2019-04-14T01:12:17.073Z,32.40
2019-04-14T01:15:09.528Z,32.40
2019-04-14T01:18:03.522Z,32.40
2019-04-14T01:20:57.761Z,32.40
2019-04-14T01:23:52.338Z,32.40
2019-04-14T01:26:44.828Z,32.40
2019-04-14T01:29:38.370Z,32.40
2019-04-14T01:32:31.050Z,32.40
2019-04-14T01:35:24.832Z,32.40
2019-04-14T01:38:18.958Z,32.30
2019-04-14T01:41:11.300Z,32.30
2019-04-14T01:44:04.573Z,32.30
2019-04-14T01:46:58.717Z,32.30
2019-04-14T01:49:51.532Z,32.30
2019-04-14T01:53:09.601Z,32.40
2019-04-14T01:56:14.612Z,32.40
2019-04-14T01:59:08.732Z,32.40
2019-04-14T02:02:02.925Z,32.40
2019-04-14T02:04:55.660Z,32.30
2019-04-14T02:07:49.354Z,32.40
2019-04-14T02:10:43.462Z,32.40
2019-04-14T02:13:37.458Z,32.40
2019-04-14T02:16:37.662Z,32.40
2019-04-14T02:19:24.732Z,32.40
2019-04-14T02:22:18.104Z,32.30
2019-04-14T02:25:12.028Z,32.30
2019-04-14T02:28:04.876Z,32.30
2019-04-14T02:31:10.288Z,32.40
2019-04-14T02:34:25.577Z,32.40
2019-04-14T02:37:23.780Z,32.40
2019-04-14T02:40:11.840Z,32.30
2019-04-14T02:48:53.290Z,32.40
2019-04-14T02:51:40.313Z,32.30
2019-04-14T02:54:54.152Z,32.40
2019-04-14T02:57:30.369Z,32.40
2019-04-14T03:00:39.109Z,32.40
2019-04-14T03:06:44.553Z,32.40
2019-04-14T03:12:24.560Z,32.40
2019-04-14T03:15:01.493Z,32.40
2019-04-14T03:18:31.857Z,32.40
2019-04-14T03:24:53.868Z,32.30
2019-04-14T03:27:58.981Z,32.30
2019-04-14T03:34:44.252Z,32.40
2019-04-14T03:39:48.045Z,32.40
2019-04-14T03:42:55.474Z,32.40
2019-04-14T03:45:50.800Z,32.40
2019-04-14T03:51:34.719Z,32.30
2019-04-14T03:54:08.518Z,32.30
2019-04-14T03:56:48.989Z,32.40
2019-04-14T03:59:41.582Z,32.40
2019-04-14T04:02:35.838Z,32.40
2019-04-14T04:05:28.681Z,32.40
2019-04-14T04:08:22.320Z,32.40
2019-04-14T04:11:15.188Z,32.40
2019-04-14T04:14:07.974Z,32.40
2019-04-14T04:17:23.290Z,32.40
2019-04-14T04:20:41.281Z,32.30
2019-04-14T04:23:40.361Z,32.40
2019-04-14T04:27:03.073Z,32.30
2019-04-14T04:30:12.392Z,32.40
2019-04-14T04:33:24.227Z,32.40
2019-04-14T04:36:25.366Z,32.40
2019-04-14T04:39:25.553Z,32.40
2019-04-14T04:42:19.851Z,32.40
2019-04-14T04:45:12.908Z,32.40
2019-04-14T04:48:06.686Z,32.40
2019-04-14T04:51:00.685Z,32.40
2019-04-14T04:53:54.823Z,32.30
2019-04-14T04:56:47.483Z,32.30
2019-04-14T04:59:41.024Z,32.40
2019-04-14T05:02:33.610Z,32.40
2019-04-14T05:05:42.809Z,32.40
2019-04-14T05:08:35.267Z,32.40
2019-04-14T05:11:36.172Z,32.40
2019-04-14T05:14:37.275Z,32.40
2019-04-14T05:17:30.402Z,32.30
2019-04-14T05:20:22.662Z,32.40
2019-04-14T05:23:15.060Z,32.40
2019-04-14T05:26:08.898Z,32.40
2019-04-14T05:29:03.494Z,32.40
2019-04-14T05:31:56.046Z,32.40
2019-04-14T05:34:50.183Z,32.40
2019-04-14T05:37:44.372Z,32.40
2019-04-14T05:40:38.883Z,32.40
2019-04-14T05:43:40.598Z,32.40
2019-04-14T05:46:25.823Z,32.40
2019-04-14T05:49:28.648Z,32.40
2019-04-14T05:52:14.076Z,32.40
2019-04-14T05:55:08.685Z,32.30
2019-04-14T05:58:02.139Z,32.40
2019-04-14T06:00:55.884Z,32.40
2019-04-14T06:03:49.574Z,32.40
2019-04-14T06:06:43.547Z,32.30
2019-04-14T06:09:36.471Z,32.40
2019-04-14T06:12:30.987Z,32.40
2019-04-14T06:15:23.635Z,32.40
2019-04-14T06:18:16.541Z,32.40
2019-04-14T06:21:09.297Z,32.40
2019-04-14T06:24:01.879Z,32.30
2019-04-14T06:26:55.633Z,32.40
2019-04-14T06:29:50.099Z,32.40
2019-04-14T06:32:45.884Z,32.40
2019-04-14T06:36:09.123Z,32.40
2019-04-14T06:39:10.935Z,32.40
2019-04-14T06:42:05.170Z,32.40
2019-04-14T06:44:57.657Z,32.40
2019-04-14T06:47:50.006Z,32.40
2019-04-14T06:50:42.424Z,32.40
2019-04-14T06:53:35.290Z,32.30
2019-04-14T06:56:27.651Z,32.40
2019-04-14T06:59:21.699Z,32.40
2019-04-14T07:02:14.471Z,32.40
2019-04-14T07:05:07.540Z,32.40
2019-04-14T07:08:00.070Z,32.40
2019-04-14T07:10:52.756Z,32.40
2019-04-14T07:13:47.819Z,32.40
2019-04-14T07:16:39.856Z,32.40
2019-04-14T07:19:32.461Z,32.40
2019-04-14T07:22:26.792Z,32.40
2019-04-14T07:25:19.611Z,32.40
2019-04-14T07:28:11.948Z,32.40
2019-04-14T07:31:31.874Z,32.40
2019-04-14T07:34:41.734Z,32.50
2019-04-14T07:38:02.936Z,32.40
2019-04-14T07:41:20.921Z,32.50
2019-04-14T07:44:31.850Z,32.50
2019-04-14T07:47:45.685Z,32.50
2019-04-14T07:50:55.172Z,32.50
2019-04-14T07:53:53.057Z,32.40
2019-04-14T07:57:06.911Z,32.50
2019-04-14T08:00:15.530Z,32.50
2019-04-14T08:03:29.357Z,32.50
2019-04-14T08:06:24.601Z,32.40
2019-04-14T08:09:17.653Z,32.50
2019-04-14T08:12:10.312Z,32.50
2019-04-14T08:15:02.947Z,32.50
2019-04-14T08:17:55.852Z,32.50
2019-04-14T08:20:48.217Z,32.50
2019-04-14T08:23:40.920Z,32.50
2019-04-14T08:26:33.711Z,32.50
2019-04-14T08:29:26.745Z,32.50
2019-04-14T08:32:20.007Z,32.50
2019-04-14T08:35:13.617Z,32.50
2019-04-14T08:38:06.629Z,32.50
2019-04-14T08:40:59.969Z,32.50
2019-04-14T08:44:13.291Z,32.50
2019-04-14T08:47:17.864Z,32.50
2019-04-14T08:50:39.397Z,32.50
2019-04-14T08:53:36.346Z,32.50
2019-04-14T08:56:36.342Z,32.50
2019-04-14T08:59:56.644Z,32.50
2019-04-14T09:03:22.989Z,32.50
2019-04-14T09:06:33.831Z,32.50
2019-04-14T09:09:34.928Z,32.50
2019-04-14T09:12:30.546Z,32.50
2019-04-14T09:15:24.721Z,32.50
2019-04-14T09:18:17.250Z,32.50
2019-04-14T09:21:09.683Z,32.50
2019-04-14T09:24:04.270Z,32.50
2019-04-14T09:26:58.980Z,32.50
2019-04-14T09:29:52.357Z,32.50
2019-04-14T09:32:45.933Z,32.50
2019-04-14T09:35:39.269Z,32.50
2019-04-14T09:38:32.704Z,32.50
2019-04-14T09:41:26.814Z,32.50
2019-04-14T09:44:20.093Z,32.60
2019-04-14T09:47:13.440Z,32.60
2019-04-14T09:50:06.193Z,32.60
2019-04-14T09:52:59.555Z,32.60
2019-04-14T09:55:53.287Z,32.60
2019-04-14T09:58:46.464Z,32.60
2019-04-14T10:01:39.763Z,32.60
2019-04-14T10:04:33.396Z,32.60
2019-04-14T10:07:26.351Z,32.60
2019-04-14T10:10:20.163Z,32.60
2019-04-14T10:13:13.688Z,32.60
2019-04-14T10:16:06.355Z,32.60
2019-04-14T10:18:58.939Z,32.60
2019-04-14T10:21:52.103Z,32.60
2019-04-14T10:24:44.608Z,32.60
2019-04-14T10:27:38.079Z,32.60
2019-04-14T10:30:30.503Z,32.60
2019-04-14T10:33:22.812Z,32.60
2019-04-14T10:36:15.878Z,32.60
2019-04-14T10:39:09.322Z,32.60
2019-04-14T10:42:02.036Z,32.70
2019-04-14T10:44:56.486Z,32.70
2019-04-14T10:47:49.725Z,32.70
2019-04-14T10:50:42.347Z,32.70
2019-04-14T10:53:34.738Z,32.70
2019-04-14T10:56:27.525Z,32.70
2019-04-14T10:59:20.287Z,32.70
2019-04-14T11:02:13.408Z,32.70
2019-04-14T11:05:06.201Z,32.70
2019-04-14T11:08:01.345Z,32.70
2019-04-14T11:10:54.229Z,32.70
2019-04-14T11:13:48.670Z,32.70
2019-04-14T11:16:41.475Z,32.70
2019-04-14T11:19:34.472Z,32.70
2019-04-14T11:22:27.279Z,32.70
2019-04-14T11:25:20.553Z,32.70
2019-04-14T11:28:13.201Z,32.70
2019-04-14T11:31:07.961Z,32.70
2019-04-14T11:34:04.535Z,32.80
2019-04-14T11:37:12.023Z,32.80
2019-04-14T11:40:05.762Z,32.70
2019-04-14T11:42:58.911Z,32.80
2019-04-14T11:45:51.827Z,32.80
2019-04-14T11:48:44.942Z,32.80
2019-04-14T11:51:37.751Z,32.80
2019-04-14T11:54:30.745Z,32.80
2019-04-14T11:57:23.809Z,32.80
2019-04-14T12:00:44.279Z,32.80
2019-04-14T12:04:04.468Z,32.80
2019-04-14T12:07:24.734Z,32.80
2019-04-14T12:10:21.270Z,32.80
2019-04-14T12:13:13.930Z,32.80
2019-04-14T12:16:07.581Z,32.80
2019-04-14T12:19:00.069Z,32.80
2019-04-14T12:21:53.703Z,32.80
2019-04-14T12:24:46.313Z,32.80
2019-04-14T12:27:39.752Z,32.80
2019-04-14T12:30:33.280Z,32.80
2019-04-14T12:33:26.116Z,32.80
2019-04-14T12:36:19.062Z,32.80
2019-04-14T12:39:15.084Z,32.90
2019-04-14T12:42:23.298Z,32.90
2019-04-14T12:45:34.724Z,32.90
2019-04-14T12:48:34.506Z,32.90
2019-04-14T12:51:31.554Z,32.90
2019-04-14T12:54:24.250Z,32.90
2019-04-14T12:57:18.841Z,32.90
2019-04-14T13:00:19.521Z,32.90
2019-04-14T13:03:12.931Z,32.90
2019-04-14T13:06:05.643Z,32.90
2019-04-14T13:09:00.143Z,32.90
2019-04-14T13:11:53.825Z,32.90
2019-04-14T13:14:46.712Z,32.90
2019-04-14T13:17:39.284Z,32.90
2019-04-14T13:20:31.969Z,32.90
2019-04-14T13:23:26.442Z,32.90
2019-04-14T13:26:20.433Z,32.90
2019-04-14T13:29:13.310Z,32.90
2019-04-14T13:32:06.505Z,32.90
2019-04-14T13:34:59.184Z,32.90
2019-04-14T13:37:51.952Z,33.00
2019-04-14T13:40:44.854Z,32.90
2019-04-14T13:43:37.819Z,32.90
2019-04-14T13:46:30.461Z,33.00
2019-04-14T13:49:22.737Z,33.00
2019-04-14T13:52:15.087Z,33.00
2019-04-14T13:55:08.068Z,33.00
2019-04-14T13:58:00.455Z,33.00
2019-04-14T14:00:53.092Z,32.90
2019-04-14T14:03:46.377Z,33.00
2019-04-14T14:06:39.806Z,33.00
2019-04-14T14:09:33.156Z,33.00
2019-04-14T14:12:51.168Z,33.00
2019-04-14T14:16:00.966Z,33.00
2019-04-14T14:19:08.055Z,33.00
2019-04-14T14:22:15.823Z,33.00
2019-04-14T14:25:19.567Z,33.00
2019-04-14T14:28:12.623Z,33.00
2019-04-14T14:31:06.589Z,33.00
2019-04-14T14:33:59.901Z,33.00
2019-04-14T14:36:55.552Z,33.00
2019-04-14T14:39:49.076Z,33.00
2019-04-14T14:42:44.286Z,33.00
2019-04-14T14:46:01.230Z,33.00
2019-04-14T14:49:00.732Z,33.00
2019-04-14T14:52:00.190Z,33.00
2019-04-14T14:54:53.408Z,33.00
2019-04-14T14:57:46.241Z,33.00
2019-04-14T15:00:39.748Z,33.00
2019-04-14T15:03:33.503Z,33.00
2019-04-14T15:06:26.895Z,33.10
2019-04-14T15:09:20.976Z,33.00
2019-04-14T15:12:13.980Z,33.00
2019-04-14T15:15:07.301Z,33.00
2019-04-14T15:18:00.951Z,33.00
2019-04-14T15:21:00.399Z,33.10
2019-04-14T15:23:53.832Z,33.10
2019-04-14T15:26:46.230Z,33.10
2019-04-14T15:29:39.174Z,33.10
2019-04-14T15:32:31.983Z,33.10
2019-04-14T15:35:24.834Z,33.10
2019-04-14T15:38:19.756Z,33.10
2019-04-14T15:41:12.809Z,33.10
2019-04-14T15:44:06.563Z,33.10
2019-04-14T15:46:59.912Z,33.00
2019-04-14T15:49:53.992Z,33.10
2019-04-14T15:52:47.585Z,33.10
2019-04-14T15:55:39.898Z,33.10
2019-04-14T15:58:50.836Z,33.10
2019-04-14T16:02:07.767Z,33.10
2019-04-14T16:05:09.060Z,33.10
2019-04-14T16:08:18.237Z,33.10
2019-04-14T16:11:24.261Z,33.10
2019-04-14T16:14:35.423Z,33.10
2019-04-14T16:17:53.022Z,33.10
2019-04-14T16:20:46.652Z,33.10
2019-04-14T16:23:49.997Z,33.10
2019-04-14T16:26:39.513Z,33.10
2019-04-14T16:29:39.933Z,33.10
2019-04-14T16:33:06.927Z,33.10
2019-04-14T16:35:59.992Z,33.10
2019-04-14T16:38:52.621Z,33.10
2019-04-14T16:41:46.305Z,33.10
2019-04-14T16:44:39.155Z,33.10
2019-04-14T16:47:31.509Z,33.10
2019-04-14T16:50:25.424Z,33.10
2019-04-14T16:53:30.951Z,33.10
2019-04-14T16:57:00.025Z,33.20
2019-04-14T16:59:52.861Z,33.10
2019-04-14T17:02:45.106Z,33.20
2019-04-14T17:05:39.064Z,33.20
2019-04-14T17:08:31.835Z,33.20
2019-04-14T17:11:24.659Z,33.20
2019-04-14T17:14:28.051Z,33.20
2019-04-14T17:17:39.115Z,33.10
2019-04-14T17:20:56.178Z,33.10
2019-04-14T17:23:57.094Z,33.20
2019-04-14T17:27:14.968Z,33.20
2019-04-14T17:30:25.681Z,33.20
2019-04-14T17:33:29.613Z,33.20
2019-04-14T17:36:34.766Z,33.20
2019-04-14T17:39:35.014Z,33.20
2019-04-14T17:42:47.847Z,33.20
2019-04-14T17:46:00.180Z,33.20
2019-04-14T17:49:26.300Z,33.20
2019-04-14T17:52:46.982Z,33.10
2019-04-14T17:55:50.040Z,33.20
2019-04-14T17:59:02.921Z,33.20
2019-04-14T18:02:03.892Z,33.20
2019-04-14T18:05:09.451Z,33.20
2019-04-14T18:08:23.563Z,33.20
2019-04-14T18:11:40.758Z,33.20
2019-04-14T18:14:54.867Z,33.20
2019-04-14T18:18:06.077Z,33.20
2019-04-14T18:21:01.545Z,33.20
2019-04-14T18:23:54.326Z,33.20
2019-04-14T18:26:47.121Z,33.20
2019-04-14T18:29:44.670Z,33.20
2019-04-14T18:32:44.443Z,33.20
2019-04-14T18:36:01.290Z,33.20
2019-04-14T18:39:08.148Z,33.20
2019-04-14T18:42:13.221Z,33.20
2019-04-14T18:45:41.476Z,33.20
2019-04-14T18:48:38.600Z,33.20
2019-04-14T18:51:44.533Z,33.20
2019-04-14T18:55:01.811Z,33.20
2019-04-14T18:58:15.755Z,33.20
2019-04-14T19:01:15.334Z,33.20
2019-04-14T19:04:07.659Z,33.20
2019-04-14T19:07:00.137Z,33.20
2019-04-14T19:09:52.941Z,33.20
2019-04-14T19:13:09.152Z,33.20
2019-04-14T19:16:19.340Z,33.20
2019-04-14T19:19:12.178Z,33.20
2019-04-14T19:22:04.455Z,33.20
2019-04-14T19:25:07.288Z,33.20
2019-04-14T19:27:51.198Z,33.20
2019-04-14T19:30:43.941Z,33.20
2019-04-14T19:33:36.713Z,33.20
2019-04-14T19:36:29.426Z,33.20
2019-04-14T19:39:22.163Z,33.20
2019-04-14T19:42:14.727Z,33.20
2019-04-14T19:45:07.405Z,33.20
2019-04-14T19:48:00.450Z,33.20
2019-04-14T19:50:53.240Z,33.20
2019-04-14T19:53:45.631Z,33.20
2019-04-14T19:56:38.252Z,33.20
2019-04-14T19:59:31.396Z,33.20
2019-04-14T20:02:24.172Z,33.20
2019-04-14T20:05:17.012Z,33.20
2019-04-14T20:08:09.880Z,33.20
2019-04-14T20:11:02.705Z,33.20
2019-04-14T20:13:55.427Z,33.20
2019-04-14T20:17:06.139Z,33.20
2019-04-14T20:20:10.232Z,33.20
2019-04-14T20:23:30.285Z,33.20
2019-04-14T20:26:44.196Z,33.20
2019-04-14T20:29:41.027Z,33.20
2019-04-14T20:32:35.979Z,33.20
2019-04-14T20:35:28.688Z,33.20
2019-04-14T20:38:21.729Z,33.20
2019-04-14T20:41:14.294Z,33.20
2019-04-14T20:44:07.057Z,33.20
2019-04-14T20:46:59.529Z,33.20
2019-04-14T20:49:51.899Z,33.20
2019-04-14T20:52:44.580Z,33.20
2019-04-14T20:55:46.743Z,33.20
2019-04-14T20:58:30.933Z,33.20
2019-04-14T21:01:24.118Z,33.20
2019-04-14T21:04:35.153Z,33.20
2019-04-14T21:07:49.363Z,33.20
2019-04-14T21:10:51.673Z,33.20
2019-04-14T21:13:52.729Z,33.20
2019-04-14T21:17:00.597Z,33.20
2019-04-14T21:20:14.772Z,33.20
2019-04-14T21:23:33.553Z,33.20
2019-04-14T21:26:47.407Z,33.20
2019-04-14T21:29:56.765Z,33.20
2019-04-14T21:33:13.808Z,33.20
2019-04-14T21:36:14.282Z,33.20
2019-04-14T21:39:29.280Z,33.20
2019-04-14T21:42:22.613Z,33.20
2019-04-14T21:45:15.703Z,33.20
2019-04-14T21:48:09.030Z,33.20
2019-04-14T21:51:01.733Z,33.20
2019-04-14T21:53:54.173Z,33.20
2019-04-14T21:56:48.269Z,33.20
2019-04-14T21:59:56.468Z,33.20
2019-04-14T22:03:06.325Z,33.20
2019-04-14T22:06:08.797Z,33.20
2019-04-14T22:09:01.262Z,33.20
2019-04-14T22:11:54.911Z,33.20
2019-04-14T22:14:47.563Z,33.20
2019-04-14T22:17:40.178Z,33.20
2019-04-14T22:20:32.718Z,33.20
2019-04-14T22:23:26.677Z,33.20
2019-04-14T22:26:25.987Z,33.20
2019-04-14T22:29:13.488Z,33.20
2019-04-14T22:32:06.163Z,33.20
2019-04-14T22:34:58.563Z,33.20
2019-04-14T22:37:51.510Z,33.20
2019-04-14T22:40:45.564Z,33.20
2019-04-14T22:43:38.408Z,33.20
2019-04-14T22:46:30.930Z,33.20
2019-04-14T22:49:23.673Z,33.20
2019-04-14T22:52:16.792Z,33.20
2019-04-14T22:55:09.970Z,33.20
2019-04-14T22:58:02.597Z,33.20
2019-04-14T23:01:03.528Z,33.20
2019-04-14T23:04:17.372Z,33.20
2019-04-14T23:07:29.191Z,33.20
2019-04-14T23:10:49.063Z,33.10
2019-04-14T23:14:00.055Z,33.20
2019-04-14T23:17:10.580Z,33.20
2019-04-14T23:20:14.426Z,33.10
2019-04-14T23:23:27.708Z,33.20
2019-04-14T23:26:20.624Z,33.20
2019-04-14T23:29:13.560Z,33.20
2019-04-14T23:32:07.120Z,33.20
2019-04-14T23:35:00.050Z,33.20
2019-04-14T23:37:52.843Z,33.20
2019-04-14T23:40:45.706Z,33.10
2019-04-14T23:43:38.614Z,33.20
2019-04-14T23:46:31.315Z,33.20
2019-04-14T23:49:23.970Z,33.10
2019-04-14T23:52:17.049Z,33.10
2019-04-14T23:55:09.468Z,33.10
2019-04-14T23:58:02.091Z,33.10
